Time;durP1;ratioP1;P1;durP2;ratioP2;P2;SDS_P1;SDS_P2;PMS_P1;PMS_P2;Temp;Humidity;BMP_temperature;BMP_pressure;BME280_temperature;BME280_humidity;BME280_pressure;Samples;Min_cycle;Max_cycle;Signal;HPM_P1;HPM_P2
2024/04/10 05:44:17;;;;;;;12.05;2.00;;;;;;;4.83;89.26;97517.69;2262332;25;20574;-63
2024/04/10 05:50:37;;;;;;;34.65;2.58;;;;;;;4.93;89.20;97511.56;2223816;26;20578;-63
2024/04/10 07:00:56;;;;;;;19.05;2.67;;;;;;;6.94;80.12;97586.19;2224262;26;20629;-65
2024/04/10 07:03:21;;;;;;;17.13;2.08;;;;;;;7.02;79.64;97592.97;2228619;26;20582;-65
2024/04/10 07:05:49;;;;;;;19.15;2.20;;;;;;;7.11;79.33;97586.78;2222287;26;20581;-63
2024/04/10 07:06:51;;;;;;;27.90;3.42;;;;;;;7.11;78.78;97596.28;2219629;26;20917;-64
2024/04/10 07:07:53;;;;;;;14.80;2.25;;;;;;;7.11;78.52;97591.97;2219761;26;20529;-63
2024/04/10 07:10:05;;;;;;;20.67;3.08;;;;;;;7.59;78.07;97605.91;2216855;26;20584;-64
2024/04/10 07:11:11;;;;;;;22.30;2.65;;;;;;;7.59;77.35;97608.50;2207863;26;20217;-64
2024/04/10 07:12:17;;;;;;;13.43;1.95;;;;;;;7.39;77.41;97596.72;2207273;26;20640;-64
2024/04/10 07:13:19;;;;;;;20.50;2.63;;;;;;;7.54;77.29;97607.72;2209217;26;20303;-64
2024/04/10 07:14:20;;;;;;;26.15;3.25;;;;;;;7.50;77.10;97613.00;2204402;26;20214;-64
2024/04/10 07:15:22;;;;;;;23.63;2.75;;;;;;;7.61;76.56;97609.34;2191623;27;20276;-64
2024/04/10 07:16:26;;;;;;;15.75;2.22;;;;;;;7.71;76.42;97597.91;2191790;27;20222;-64
2024/04/10 07:17:30;;;;;;;20.75;2.78;;;;;;;7.88;76.14;97605.38;2188951;27;20218;-64
2024/04/10 07:18:33;;;;;;;13.63;2.83;;;;;;;8.05;75.23;97609.41;2193087;27;20629;-64
2024/04/10 07:19:38;;;;;;;19.95;2.35;;;;;;;8.08;74.79;97610.22;2190761;26;20283;-64
2024/04/10 07:20:39;;;;;;;20.50;2.70;;;;;;;8.17;74.83;97604.81;2189342;27;20261;-64
2024/04/10 07:21:41;;;;;;;15.70;2.50;;;;;;;8.34;74.56;97609.69;2191142;27;20217;-64
2024/04/10 07:22:43;;;;;;;22.73;2.30;;;;;;;8.42;74.50;97613.91;2194978;26;20257;-64
2024/04/10 07:23:45;;;;;;;13.07;1.73;;;;;;;8.65;73.74;97606.47;2193618;27;20230;-64
2024/04/10 07:24:50;;;;;;;12.90;2.30;;;;;;;8.61;73.47;97607.44;2190367;26;20266;-64
2024/04/10 07:25:51;;;;;;;20.88;2.63;;;;;;;8.72;72.73;97620.22;2193442;27;20222;-64
2024/04/10 07:26:53;;;;;;;13.02;2.50;;;;;;;9.01;72.87;97616.09;2196202;26;20521;-64
2024/04/10 07:27:54;;;;;;;18.67;2.90;;;;;;;9.07;71.96;97612.53;2190253;27;20263;-64
2024/04/10 07:28:57;;;;;;;14.93;2.75;;;;;;;9.42;71.31;97618.63;2195492;26;20220;-64
2024/04/10 07:29:59;;;;;;;10.90;2.20;;;;;;;9.47;70.58;97619.38;2193046;26;20308;-64
2024/04/10 07:31:01;;;;;;;11.85;2.47;;;;;;;9.59;70.19;97616.47;2191799;27;20323;-64
2024/04/10 07:32:03;;;;;;;18.92;3.55;;;;;;;10.29;69.21;97622.44;2191205;27;20276;-64
2024/04/10 07:33:05;;;;;;;12.25;2.28;;;;;;;10.32;68.79;97619.75;2197132;26;20269;-64
2024/04/10 07:34:07;;;;;;;19.15;2.92;;;;;;;10.02;68.25;97613.63;2195576;26;20806;-64
2024/04/10 07:35:09;;;;;;;23.83;1.95;;;;;;;10.33;68.46;97618.84;2190611;26;20248;-64
2024/04/10 07:36:12;;;;;;;15.27;2.35;;;;;;;10.23;69.02;97617.41;2191113;27;20225;-64
2024/04/10 07:37:13;;;;;;;15.55;2.28;;;;;;;10.48;68.91;97607.16;2190828;27;20616;-64
2024/04/10 07:38:16;;;;;;;20.30;3.22;;;;;;;10.80;66.70;97618.41;2189556;27;20219;-64
2024/04/10 07:39:19;;;;;;;14.82;2.47;;;;;;;11.05;66.75;97623.72;2190755;26;20284;-64
2024/04/10 07:40:21;;;;;;;14.27;2.65;;;;;;;11.18;65.89;97628.59;2191196;27;20264;-64
2024/04/10 07:41:23;;;;;;;14.30;1.85;;;;;;;10.90;66.44;97635.50;2193284;27;20223;-64
2024/04/10 07:42:25;;;;;;;21.23;2.50;;;;;;;10.65;66.54;97624.09;2193850;26;20226;-64
2024/04/10 07:43:27;;;;;;;18.20;2.20;;;;;;;10.53;66.81;97626.16;2189390;27;20260;-64
2024/04/10 07:44:28;;;;;;;13.82;1.80;;;;;;;10.12;67.10;97636.81;2191311;26;20218;-61
2024/04/10 07:45:30;;;;;;;16.85;2.80;;;;;;;10.10;67.70;97643.00;2192069;27;20927;-61
2024/04/10 07:46:32;;;;;;;19.80;3.00;;;;;;;10.33;66.57;97633.66;2189535;27;20210;-61
2024/04/10 07:47:33;;;;;;;12.55;2.40;;;;;;;10.54;66.64;97638.31;2193337;26;20233;-61
2024/04/10 07:48:35;;;;;;;21.73;2.90;;;;;;;10.02;65.85;97640.59;2190358;26;20352;-61
2024/04/10 07:49:37;;;;;;;14.00;2.90;;;;;;;10.12;66.84;97642.03;2183394;26;20257;-61
2024/04/10 07:50:39;;;;;;;9.18;2.30;;;;;;;10.70;65.29;97643.09;2197496;26;20584;-61
2024/04/10 07:51:41;;;;;;;11.98;2.30;;;;;;;11.01;65.71;97640.41;2193599;26;20269;-61
2024/04/10 07:52:42;;;;;;;16.77;2.70;;;;;;;11.05;64.57;97649.88;2190482;27;20230;-61
2024/04/10 07:53:44;;;;;;;20.50;2.03;;;;;;;10.97;64.42;97651.00;2195236;27;20366;-61
2024/04/10 07:54:45;;;;;;;11.68;2.78;;;;;;;10.77;64.29;97644.63;2199532;26;20256;-61
2024/04/10 07:55:47;;;;;;;14.50;2.40;;;;;;;10.65;64.66;97644.97;2200314;27;20221;-60
2024/04/10 07:56:48;;;;;;;15.27;2.80;;;;;;;10.41;65.56;97653.47;2190556;27;20217;-61
2024/04/10 07:57:50;;;;;;;18.90;2.17;;;;;;;10.48;65.74;97653.31;2190362;27;20222;-60
2024/04/10 07:58:52;;;;;;;28.35;3.58;;;;;;;10.04;66.46;97658.81;2192390;27;20272;-61
2024/04/10 07:59:53;;;;;;;18.35;2.28;;;;;;;9.72;67.16;97656.13;2191939;26;20262;-60
2024/04/10 08:00:59;;;;;;;17.05;2.97;;;;;;;9.58;67.65;97653.84;2193295;27;20223;-61
2024/04/10 08:02:01;;;;;;;18.73;2.88;;;;;;;10.23;66.57;97661.78;2191021;27;20666;-64
2024/04/10 08:03:03;;;;;;;19.45;2.35;;;;;;;10.88;65.93;97660.84;2192749;27;20531;-65
2024/04/10 08:04:06;;;;;;;12.30;2.83;;;;;;;11.17;64.83;97666.94;2193747;27;20264;-64
2024/04/10 08:05:10;;;;;;;23.83;2.80;;;;;;;11.69;63.35;97663.56;2181383;26;20297;-64
2024/04/10 08:06:14;;;;;;;16.83;2.05;;;;;;;11.16;63.03;97662.63;2192330;27;20217;-64
2024/04/10 08:07:17;;;;;;;18.60;2.25;;;;;;;11.45;64.10;97660.84;2193207;26;20217;-64
2024/04/10 08:08:19;;;;;;;23.55;2.33;;;;;;;10.99;64.61;97654.44;2191676;27;20222;-64
2024/04/10 08:09:22;;;;;;;17.10;2.70;;;;;;;11.60;63.13;97668.22;2194757;26;20308;-64
2024/04/10 08:10:23;;;;;;;9.15;2.50;;;;;;;12.30;62.07;97660.63;2190148;27;20684;-64
2024/04/10 08:11:27;;;;;;;12.63;2.45;;;;;;;12.50;61.11;97667.78;2190518;26;20447;-64
2024/04/10 08:12:28;;;;;;;15.23;2.47;;;;;;;12.17;61.04;97668.06;2190541;27;20257;-64
2024/04/10 08:13:32;;;;;;;11.68;1.80;;;;;;;12.29;61.97;97673.78;2196404;27;20315;-64
2024/04/10 08:14:33;;;;;;;13.10;2.08;;;;;;;12.13;61.36;97666.47;2195616;26;20257;-64
2024/04/10 08:15:35;;;;;;;14.27;2.70;;;;;;;12.71;60.82;97673.19;2194852;27;20272;-64
2024/04/10 08:16:36;;;;;;;7.15;1.95;;;;;;;13.02;58.97;97672.00;2194506;26;20223;-64
2024/04/10 08:17:40;;;;;;;15.85;2.83;;;;;;;12.16;60.64;97673.38;2194518;27;20237;-64
2024/04/10 08:18:45;;;;;;;10.73;1.80;;;;;;;11.61;61.40;97682.13;2194695;27;20230;-64
2024/04/10 08:19:47;;;;;;;13.48;2.33;;;;;;;11.26;61.95;97684.97;2195333;26;20300;-64
2024/04/10 08:20:57;;;;;;;11.23;2.53;;;;;;;10.99;62.73;97685.81;2194031;26;20723;-64
2024/04/10 08:21:59;;;;;;;17.52;2.50;;;;;;;11.12;62.58;97687.13;2188613;27;20225;-64
2024/04/10 08:23:00;;;;;;;16.75;2.38;;;;;;;10.81;64.11;97681.97;2186041;27;20290;-64
2024/04/10 08:24:02;;;;;;;13.48;1.95;;;;;;;11.33;62.95;97685.63;2186051;27;20258;-64
2024/04/10 08:25:04;;;;;;;12.15;2.10;;;;;;;11.67;60.76;97684.56;2184760;26;20300;-64
2024/04/10 08:26:14;;;;;;;13.68;2.42;;;;;;;11.59;60.95;97687.41;2187234;27;20239;-64
2024/04/10 08:27:15;;;;;;;10.30;2.55;;;;;;;11.43;60.00;97688.81;2185465;27;20264;-64
2024/04/10 08:28:20;;;;;;;14.27;2.63;;;;;;;11.50;59.93;97689.47;2184760;27;20288;-64
2024/04/10 08:29:22;;;;;;;22.90;3.53;;;;;;;11.36;60.77;97695.13;2185278;26;20217;-64
2024/04/10 08:30:24;;;;;;;12.45;2.70;;;;;;;11.52;60.78;97698.97;2183165;27;20266;-64
2024/04/10 08:31:28;;;;;;;11.00;2.67;;;;;;;11.90;61.34;97698.66;2182450;27;20260;-64
2024/04/10 08:32:30;;;;;;;19.05;2.47;;;;;;;10.93;62.50;97692.94;2182691;27;20214;-64
2024/04/10 08:33:31;;;;;;;15.57;2.25;;;;;;;11.75;62.08;97692.16;2184689;27;20222;-64
2024/04/10 08:34:33;;;;;;;13.30;2.92;;;;;;;12.28;60.65;97695.66;2188022;26;20315;-64
2024/04/10 08:35:36;;;;;;;11.43;1.95;;;;;;;12.14;60.68;97691.75;2186060;26;20771;-65
2024/04/10 08:36:39;;;;;;;11.60;2.10;;;;;;;12.59;59.98;97698.03;2186376;27;20608;-65
2024/04/10 08:37:40;;;;;;;15.32;2.20;;;;;;;12.81;58.13;97699.88;2185458;27;20225;-65
2024/04/10 08:38:44;;;;;;;14.45;2.15;;;;;;;12.80;58.67;97701.66;2184070;27;20211;-65
2024/04/10 08:39:48;;;;;;;21.52;2.97;;;;;;;12.86;58.31;97690.94;2185195;26;20382;-65
2024/04/10 08:40:55;;;;;;;13.10;1.85;;;;;;;12.66;58.31;97694.28;2184318;27;20261;-65
2024/04/10 08:41:59;;;;;;;11.18;2.40;;;;;;;12.61;57.60;97692.75;2187756;26;20624;-65
2024/04/10 08:43:02;;;;;;;14.00;2.33;;;;;;;12.82;58.21;97697.19;2199329;26;20302;-65
2024/04/10 08:44:06;;;;;;;12.10;1.83;;;;;;;12.88;57.52;97706.63;2200743;26;20692;-65
2024/04/10 08:45:09;;;;;;;14.23;2.42;;;;;;;13.01;57.25;97702.59;2185608;26;20301;-65
2024/04/10 08:46:17;;;;;;;11.02;2.35;;;;;;;12.52;57.48;97707.91;2186993;27;20796;-65
2024/04/10 08:47:20;;;;;;;10.88;2.10;;;;;;;12.22;58.10;97705.44;2189604;26;20233;-65
2024/04/10 08:48:23;;;;;;;6.97;1.77;;;;;;;12.21;56.88;97708.09;2185346;26;20999;-65
2024/04/10 08:49:26;;;;;;;9.77;1.58;;;;;;;12.49;57.38;97710.59;2185031;26;20223;-65
2024/04/10 08:50:31;;;;;;;7.68;1.70;;;;;;;12.94;56.63;97711.63;2186748;27;20239;-65
2024/04/10 08:51:33;;;;;;;8.95;1.60;;;;;;;13.25;56.40;97709.63;2185064;27;20273;-65
2024/04/10 08:52:36;;;;;;;13.70;2.38;;;;;;;12.86;56.15;97716.28;2185037;27;20218;-65
2024/04/10 08:53:42;;;;;;;14.52;1.80;;;;;;;13.18;55.85;97714.22;2185828;27;20223;-65
2024/04/10 08:54:44;;;;;;;12.77;3.30;;;;;;;13.62;56.32;97710.81;2183292;26;20301;-65
2024/04/10 08:55:47;;;;;;;14.10;2.05;;;;;;;13.74;55.61;97705.09;2184546;27;20740;-65
2024/04/10 08:57:04;;;;;;;17.00;2.45;;;;;;;14.34;55.33;97713.06;2187851;27;20329;-65
2024/04/10 08:58:07;;;;;;;10.02;1.90;;;;;;;13.66;55.16;97702.78;2189256;27;20219;-65
2024/04/10 08:59:08;;;;;;;11.25;1.83;;;;;;;13.64;54.92;97720.34;2187688;27;20525;-65
2024/04/10 09:00:10;;;;;;;12.55;2.58;;;;;;;13.59;54.61;97710.97;2183842;26;20313;-65
2024/04/10 09:01:30;;;;;;;16.85;2.75;;;;;;;12.90;56.77;97718.75;2184915;27;20325;-65
2024/04/10 09:02:35;;;;;;;10.55;1.75;;;;;;;12.18;57.16;97719.53;2193709;27;20241;-65
2024/04/10 09:03:37;;;;;;;11.70;1.58;;;;;;;11.52;58.09;97719.91;2193240;27;20268;-65
2024/04/10 09:04:43;;;;;;;9.77;1.70;;;;;;;11.52;58.65;97719.06;2186284;26;20249;-65
2024/04/10 09:05:45;;;;;;;10.88;1.80;;;;;;;11.61;59.10;97721.38;2184466;27;20245;-65
2024/04/10 09:06:48;;;;;;;15.00;1.55;;;;;;;11.42;58.75;97721.94;2187912;27;20314;-65
2024/04/10 09:07:58;;;;;;;12.52;2.10;;;;;;;11.11;59.39;97722.03;2187144;26;20238;-65
2024/04/10 09:09:00;;;;;;;13.75;1.75;;;;;;;11.26;59.92;97724.19;2183624;27;20317;-65
2024/04/10 09:10:09;;;;;;;19.52;2.45;;;;;;;11.53;59.29;97731.22;2183136;26;20262;-65
2024/04/10 09:11:11;;;;;;;10.52;1.40;;;;;;;11.82;58.89;97718.97;2184889;26;20256;-64
2024/04/10 09:12:23;;;;;;;19.95;3.60;;;;;;;12.25;57.38;97723.66;2182538;27;20261;-65
2024/04/10 09:13:25;;;;;;;18.48;1.85;;;;;;;12.83;56.77;97724.28;2204123;26;20710;-65
2024/04/10 09:14:27;;;;;;;9.15;1.88;;;;;;;12.53;57.12;97714.84;2192988;26;20222;-65
2024/04/10 09:15:29;;;;;;;13.95;2.15;;;;;;;12.63;56.42;97717.97;2188823;27;20758;-65
2024/04/10 09:16:31;;;;;;;13.48;2.13;;;;;;;12.53;55.67;97717.47;2189902;27;20225;-65
2024/04/10 09:17:33;;;;;;;14.30;2.05;;;;;;;12.73;55.76;97714.13;2189409;26;20214;-65
2024/04/10 09:18:35;;;;;;;15.93;2.17;;;;;;;13.04;54.39;97713.00;2185672;27;20218;-65
2024/04/10 09:19:36;;;;;;;17.20;2.15;;;;;;;13.02;55.83;97727.91;2204693;26;20216;-65
2024/04/10 09:20:39;;;;;;;8.30;1.58;;;;;;;13.30;55.60;97718.16;2214074;26;20310;-65
2024/04/10 09:22:05;;;;;;;13.32;2.42;;;;;;;13.47;55.40;97720.16;2201847;26;20217;-65
2024/04/10 09:23:09;;;;;;;15.82;1.65;;;;;;;12.43;54.79;97733.56;2197342;26;20214;-65
2024/04/10 09:24:13;;;;;;;7.80;1.52;;;;;;;11.68;55.63;97725.53;2199443;26;20220;-65
2024/04/10 09:25:15;;;;;;;14.70;2.10;;;;;;;11.56;56.01;97733.75;2212960;26;20302;-65
2024/04/10 09:26:17;;;;;;;14.98;1.88;;;;;;;12.31;55.60;97726.97;2211654;26;20753;-65
2024/04/10 09:27:18;;;;;;;8.00;1.52;;;;;;;12.58;54.62;97733.88;2199297;26;20226;-65
2024/04/10 09:28:20;;;;;;;3.70;1.23;;;;;;;12.54;55.11;97740.16;2201037;26;20210;-65
2024/04/10 09:29:28;;;;;;;12.30;1.98;;;;;;;12.67;54.12;97730.09;2196465;26;20272;-65
2024/04/10 09:30:31;;;;;;;10.45;2.38;;;;;;;12.79;52.97;97733.16;2200775;26;20217;-65
2024/04/10 09:31:33;;;;;;;9.68;1.60;;;;;;;12.19;52.92;97734.34;2202006;26;20520;-65
2024/04/10 09:32:38;;;;;;;10.13;2.10;;;;;;;12.53;53.90;97733.19;2198887;26;20218;-65
2024/04/10 09:33:40;;;;;;;15.38;1.90;;;;;;;12.64;53.95;97730.16;2199986;26;20260;-65
2024/04/10 09:34:43;;;;;;;20.90;2.28;;;;;;;11.89;54.07;97726.56;2192705;26;20732;-65
2024/04/10 09:35:45;;;;;;;13.32;2.05;;;;;;;11.75;54.18;97723.56;2184038;27;20227;-65
2024/04/10 09:36:47;;;;;;;12.15;2.00;;;;;;;11.86;53.96;97731.91;2187314;27;20344;-65
2024/04/10 09:37:49;;;;;;;8.48;1.63;;;;;;;12.21;55.21;97722.06;2186028;27;20604;-65
2024/04/10 09:38:52;;;;;;;16.50;2.35;;;;;;;12.00;54.67;97735.84;2185031;27;20688;-65
2024/04/10 09:39:54;;;;;;;10.18;1.80;;;;;;;11.98;53.98;97733.28;2184814;26;20254;-65
2024/04/10 09:41:03;;;;;;;11.98;2.20;;;;;;;12.06;53.67;97731.28;2186373;27;20224;-65
2024/04/10 09:42:16;;;;;;;9.10;1.63;;;;;;;12.21;54.17;97732.53;2187029;26;20297;-65
2024/04/10 09:43:21;;;;;;;8.82;1.70;;;;;;;12.34;53.68;97738.22;2186473;26;20305;-65
2024/04/10 09:44:29;;;;;;;16.00;2.67;;;;;;;13.06;54.08;97741.78;2183307;26;20265;-61
2024/04/10 09:45:32;;;;;;;11.80;2.20;;;;;;;14.42;52.91;97740.81;2188045;26;20278;-61
2024/04/10 09:46:35;;;;;;;11.05;2.15;;;;;;;14.33;52.09;97750.78;2185291;26;20219;-62
2024/04/10 09:47:39;;;;;;;14.90;1.65;;;;;;;14.33;52.09;97750.78;2185236;26;20763;-62
2024/04/10 09:48:46;;;;;;;5.45;1.90;;;;;;;14.73;49.27;97748.25;2182041;27;20223;-62
2024/04/10 09:49:58;;;;;;;6.00;1.40;;;;;;;14.53;48.45;97749.91;2186369;26;21055;-62
2024/04/10 09:51:04;;;;;;;7.00;1.60;;;;;;;13.97;48.39;97740.88;2190643;27;20218;-61
2024/04/10 09:52:09;;;;;;;5.53;1.70;;;;;;;13.64;48.79;97748.38;2187295;27;20925;-61
2024/04/10 09:53:15;;;;;;;14.07;2.17;;;;;;;13.70;49.00;97748.97;2190291;27;20225;-61
2024/04/10 09:54:18;;;;;;;5.90;1.35;;;;;;;14.75;48.43;97737.66;2188288;27;20258;-62
2024/04/10 09:55:20;;;;;;;6.18;1.40;;;;;;;14.77;47.80;97738.47;2176605;27;20747;-62
2024/04/10 09:56:22;;;;;;;9.35;2.10;;;;;;;14.64;46.41;97738.09;2193408;27;20249;-62
2024/04/10 09:57:25;;;;;;;11.07;1.38;;;;;;;13.66;47.89;97738.63;2187338;27;20351;-62
2024/04/10 09:58:28;;;;;;;7.18;1.58;;;;;;;13.64;48.35;97741.34;2185383;27;20638;-65
2024/04/10 09:59:31;;;;;;;7.88;1.80;;;;;;;13.76;49.30;97744.38;2185686;26;20261;-65
2024/04/10 10:00:36;;;;;;;14.10;2.60;;;;;;;14.43;49.97;97738.09;2187089;27;20217;-65
2024/04/10 10:01:38;;;;;;;9.25;2.05;;;;;;;15.45;48.82;97736.22;2187521;27;20210;-66
2024/04/10 10:02:39;;;;;;;7.43;2.00;;;;;;;15.05;48.24;97726.69;2187420;26;20775;-65
2024/04/10 10:03:41;;;;;;;11.23;2.08;;;;;;;15.87;48.24;97742.19;2197164;26;20256;-65
2024/04/10 10:04:43;;;;;;;14.80;2.08;;;;;;;15.51;45.97;97741.22;2208534;26;20771;-66
2024/04/10 10:05:45;;;;;;;7.43;1.40;;;;;;;14.69;47.72;97742.28;2213697;26;21055;-66
2024/04/10 10:06:48;;;;;;;14.70;1.55;;;;;;;15.09;48.59;97746.69;2214196;26;20698;-66
2024/04/10 10:07:50;;;;;;;9.43;2.15;;;;;;;15.38;49.47;97742.69;2198613;26;20268;-66
2024/04/10 10:08:53;;;;;;;6.80;1.85;;;;;;;15.56;48.15;97753.28;2202125;26;20243;-66
2024/04/10 10:10:06;;;;;;;19.40;2.08;;;;;;;15.61;47.29;97749.50;2200507;26;20253;-66
2024/04/10 10:11:17;;;;;;;8.13;1.50;;;;;;;15.21;47.46;97751.38;2200992;26;20217;-65
2024/04/10 10:12:27;;;;;;;7.80;1.60;;;;;;;14.64;48.42;97753.84;2198075;26;20593;-66
2024/04/10 10:13:30;;;;;;;9.65;1.73;;;;;;;14.81;48.10;97740.03;2200369;26;20641;-66
2024/04/10 10:14:32;;;;;;;8.50;1.80;;;;;;;14.91;47.12;97745.72;2196860;26;20318;-66
2024/04/10 10:15:33;;;;;;;10.55;1.35;;;;;;;15.44;47.13;97742.41;2185006;26;20233;-65
2024/04/10 10:16:35;;;;;;;6.00;1.42;;;;;;;16.08;46.29;97739.41;2184507;26;20266;-65
2024/04/10 10:17:38;;;;;;;6.13;1.63;;;;;;;16.86;44.17;97742.47;2201794;26;20220;-66
2024/04/10 10:19:02;;;;;;;6.35;1.20;;;;;;;16.12;41.80;97746.22;2196746;26;20564;-65
2024/04/10 10:20:05;;;;;;;9.30;1.40;;;;;;;15.33;42.12;97748.16;2183435;26;20788;-66
2024/04/10 10:21:08;;;;;;;8.82;2.05;;;;;;;15.49;43.70;97748.31;2180656;27;20227;-66
2024/04/10 10:22:15;;;;;;;5.10;1.30;;;;;;;15.55;43.51;97738.41;2185087;27;20214;-66
2024/04/10 10:23:20;;;;;;;9.20;1.45;;;;;;;15.16;45.54;97743.69;2182587;26;20227;-66
2024/04/10 10:24:22;;;;;;;11.23;2.00;;;;;;;15.52;46.49;97745.53;2182415;26;20555;-65
2024/04/10 10:25:24;;;;;;;13.07;1.65;;;;;;;15.60;46.85;97746.94;2184018;27;20270;-66
2024/04/10 10:26:27;;;;;;;4.78;1.42;;;;;;;15.56;46.72;97743.59;2186733;26;20265;-66
2024/04/10 10:27:28;;;;;;;14.30;2.25;;;;;;;15.31;47.18;97746.53;2186949;27;20838;-66
2024/04/10 10:28:30;;;;;;;8.02;1.92;;;;;;;15.28;48.16;97746.69;2183663;27;20581;-66
2024/04/10 10:29:31;;;;;;;11.35;1.92;;;;;;;15.09;48.39;97746.69;2184986;26;20900;-66
2024/04/10 10:30:34;;;;;;;7.15;1.40;;;;;;;15.17;47.89;97752.44;2187861;26;20221;-66
2024/04/10 10:31:37;;;;;;;7.80;1.85;;;;;;;15.71;48.15;97754.34;2187906;27;20222;-66
2024/04/10 10:32:38;;;;;;;11.35;1.85;;;;;;;15.63;47.93;97752.06;2184226;27;20261;-66
2024/04/10 10:33:42;;;;;;;12.95;2.42;;;;;;;15.43;48.63;97756.50;2184031;27;20755;-66
2024/04/10 10:34:44;;;;;;;12.43;1.92;;;;;;;14.41;49.78;97755.72;2184096;26;20665;-66
2024/04/10 10:35:45;;;;;;;12.48;2.00;;;;;;;14.54;50.32;97762.16;2183051;27;20528;-66
2024/04/10 10:36:48;;;;;;;7.50;1.25;;;;;;;14.88;50.13;97759.00;2183955;27;20751;-65
2024/04/10 10:37:50;;;;;;;9.88;1.95;;;;;;;14.26;50.38;97762.47;2183037;27;20222;-66
2024/04/10 10:39:10;;;;;;;13.98;1.48;;;;;;;14.17;50.91;97766.34;2186797;27;20278;-66
2024/04/10 10:40:16;;;;;;;9.27;1.90;;;;;;;13.63;50.14;97762.41;2184327;26;20258;-66
2024/04/10 10:41:18;;;;;;;12.15;2.05;;;;;;;13.50;49.95;97759.41;2181449;27;20685;-66
2024/04/10 10:42:20;;;;;;;7.13;1.40;;;;;;;13.92;50.03;97766.47;2181098;27;20211;-66
2024/04/10 10:43:22;;;;;;;8.40;2.33;;;;;;;13.93;49.94;97768.19;2183060;27;20296;-66
2024/04/10 10:44:24;;;;;;;7.10;1.33;;;;;;;13.74;49.30;97770.69;2183563;26;20214;-65
2024/04/10 10:45:25;;;;;;;9.85;1.85;;;;;;;13.39;49.75;97759.81;2187111;26;20257;-66
2024/04/10 10:46:27;;;;;;;11.65;1.65;;;;;;;13.36;49.01;97759.91;2186736;27;20219;-66
2024/04/10 10:47:29;;;;;;;10.50;1.92;;;;;;;13.54;49.11;97760.97;2188567;26;20858;-66
2024/04/10 10:48:31;;;;;;;11.80;2.40;;;;;;;13.57;49.85;97762.63;2183411;27;20218;-66
2024/04/10 10:49:32;;;;;;;11.18;2.15;;;;;;;14.67;48.52;97761.66;2183734;26;20269;-66
2024/04/10 10:50:34;;;;;;;10.32;2.08;;;;;;;15.72;46.26;97756.91;2186854;27;20270;-66
2024/04/10 10:51:36;;;;;;;10.13;1.60;;;;;;;16.33;45.55;97758.31;2186150;27;20636;-66
2024/04/10 10:52:38;;;;;;;7.00;2.22;;;;;;;16.67;43.67;97749.63;2188498;26;20852;-66
2024/04/10 10:53:39;;;;;;;10.30;1.60;;;;;;;16.67;43.46;97752.25;2186051;27;20537;-66
2024/04/10 10:54:41;;;;;;;7.55;1.70;;;;;;;15.61;44.70;97753.94;2186962;26;20292;-66
2024/04/10 10:56:00;;;;;;;7.20;1.10;;;;;;;15.49;45.51;97748.31;2188102;27;20260;-65
2024/04/10 10:57:03;;;;;;;5.85;1.30;;;;;;;16.84;44.26;97748.75;2182401;27;20257;-65
2024/04/10 10:58:06;;;;;;;9.10;1.88;;;;;;;17.03;44.23;97752.16;2195982;26;20255;-66
2024/04/10 10:59:08;;;;;;;8.23;2.63;;;;;;;16.64;44.54;97748.00;2195401;26;20230;-65
2024/04/10 11:00:17;;;;;;;8.55;1.70;;;;;;;16.71;45.61;97752.03;2186343;26;20721;-66
2024/04/10 11:01:20;;;;;;;18.67;1.65;;;;;;;16.05;46.58;97743.06;2184567;26;20530;-66
2024/04/10 11:02:23;;;;;;;12.82;1.77;;;;;;;16.37;46.52;97740.56;2183180;27;20302;-66
2024/04/10 11:03:29;;;;;;;10.55;1.80;;;;;;;15.92;46.33;97748.06;2185480;27;20222;-66
2024/04/10 11:04:31;;;;;;;10.93;2.35;;;;;;;15.59;47.32;97746.09;2183455;26;20222;-65
2024/04/10 11:05:33;;;;;;;11.35;2.70;;;;;;;14.81;48.24;97745.28;2182841;26;20221;-66
2024/04/10 11:06:35;;;;;;;12.35;1.88;;;;;;;14.50;48.64;97749.19;2184459;27;20257;-66
2024/04/10 11:07:37;;;;;;;6.47;1.52;;;;;;;13.98;48.58;97752.22;2184381;27;20219;-66
2024/04/10 11:08:39;;;;;;;13.30;1.80;;;;;;;13.80;49.14;97754.72;2186284;27;20565;-66
2024/04/10 11:09:41;;;;;;;12.82;1.85;;;;;;;14.11;48.80;97755.25;2184473;26;20739;-66
2024/04/10 11:10:46;;;;;;;9.93;2.20;;;;;;;13.84;48.64;97756.28;2186961;27;20210;-66
2024/04/10 11:11:48;;;;;;;8.43;1.52;;;;;;;13.73;48.53;97752.41;2181419;27;20960;-66
2024/04/10 11:13:06;;;;;;;11.50;1.90;;;;;;;14.06;49.72;97751.94;2182208;27;20324;-66
2024/04/10 11:14:14;;;;;;;14.20;2.00;;;;;;;14.27;49.24;97756.31;2182803;27;20582;-66
2024/04/10 11:15:16;;;;;;;14.75;1.65;;;;;;;14.36;48.27;97755.06;2183612;26;20317;-65
2024/04/10 11:16:29;;;;;;;7.28;1.48;;;;;;;15.24;46.87;97742.50;2186040;26;20564;-66
2024/04/10 11:17:30;;;;;;;6.20;1.90;;;;;;;16.11;44.71;97745.38;2186811;27;20678;-66
2024/04/10 11:18:33;;;;;;;11.02;1.55;;;;;;;16.95;43.44;97741.13;2185129;27;20218;-66
2024/04/10 11:19:38;;;;;;;9.27;1.45;;;;;;;17.26;43.48;97747.44;2182502;26;20743;-66
2024/04/10 11:20:53;;;;;;;11.10;1.20;;;;;;;17.14;42.69;97738.38;2184898;27;20735;-66
2024/04/10 11:21:55;;;;;;;8.18;1.73;;;;;;;17.63;44.04;97735.66;2184755;26;20219;-66
2024/04/10 11:23:00;;;;;;;7.28;2.03;;;;;;;17.74;44.96;97744.81;2185772;27;20218;-66
2024/04/10 11:24:01;;;;;;;5.55;1.40;;;;;;;18.71;43.79;97733.03;2183970;27;20669;-66
2024/04/10 11:25:04;;;;;;;11.10;1.73;;;;;;;19.04;43.75;97730.13;2183232;26;20249;-66
2024/04/10 11:26:06;;;;;;;10.98;1.95;;;;;;;18.70;44.08;97733.97;2182108;27;20555;-66
2024/04/10 11:27:07;;;;;;;9.00;1.92;;;;;;;18.44;43.90;97734.59;2184855;27;20677;-66
2024/04/10 11:28:10;;;;;;;8.07;1.55;;;;;;;18.31;43.68;97732.75;2184242;26;20218;-66
2024/04/10 11:29:11;;;;;;;10.30;1.95;;;;;;;19.13;43.62;97728.72;2188081;27;20225;-66
2024/04/10 11:30:13;;;;;;;8.70;2.25;;;;;;;19.20;43.31;97730.06;2181720;26;20250;-66
2024/04/10 11:31:15;;;;;;;4.85;1.70;;;;;;;19.46;42.74;97729.34;2183307;27;20231;-66
2024/04/10 11:32:16;;;;;;;7.32;2.33;;;;;;;19.63;42.74;97730.91;2186577;27;20214;-66
2024/04/10 11:33:18;;;;;;;11.70;2.22;;;;;;;19.75;42.24;97727.47;2184758;27;20360;-66
2024/04/10 11:34:19;;;;;;;10.20;1.95;;;;;;;19.07;42.77;97723.81;2184997;27;20214;-66
2024/04/10 11:35:22;;;;;;;6.85;1.70;;;;;;;17.91;43.42;97718.25;2184154;26;20837;-66
2024/04/10 11:36:24;;;;;;;8.63;1.48;;;;;;;17.39;43.54;97724.69;2185870;27;20215;-66
2024/04/10 11:37:26;;;;;;;9.45;1.52;;;;;;;16.76;44.88;97723.63;2184660;27;20211;-66
2024/04/10 11:38:27;;;;;;;8.98;2.08;;;;;;;16.62;45.38;97724.34;2198708;26;20218;-66
2024/04/10 11:39:29;;;;;;;8.85;1.88;;;;;;;16.94;44.70;97734.19;2200371;26;20217;-66
2024/04/10 11:40:31;;;;;;;13.25;1.80;;;;;;;15.95;45.58;97728.63;2201249;26;20216;-66
2024/04/10 11:41:33;;;;;;;11.50;1.35;;;;;;;17.12;45.10;97730.53;2198952;26;20380;-66
2024/04/10 11:42:34;;;;;;;7.55;1.75;;;;;;;17.25;44.35;97725.44;2197020;26;20222;-66
2024/04/10 11:43:36;;;;;;;8.60;1.88;;;;;;;17.46;44.11;97738.41;2200754;26;20217;-66
2024/04/10 11:44:37;;;;;;;4.78;1.45;;;;;;;17.43;42.76;97725.38;2198752;26;20260;-66
2024/04/10 11:45:39;;;;;;;11.05;2.00;;;;;;;17.87;41.84;97734.38;2199999;26;20221;-66
2024/04/10 11:46:41;;;;;;;9.55;2.08;;;;;;;17.83;42.98;97727.59;2198532;26;20690;-66
2024/04/10 11:47:43;;;;;;;18.63;2.55;;;;;;;17.05;41.84;97723.03;2197866;26;20819;-66
2024/04/10 11:48:45;;;;;;;5.80;1.25;;;;;;;16.45;42.65;97727.84;2199749;26;20218;-66
2024/04/10 11:49:47;;;;;;;7.88;1.85;;;;;;;15.85;43.14;97720.31;2200846;26;21127;-66
2024/04/10 11:50:49;;;;;;;8.63;2.30;;;;;;;16.31;43.10;97728.56;2201706;26;20538;-66
2024/04/10 11:51:51;;;;;;;5.70;1.38;;;;;;;16.94;41.98;97721.00;2198509;26;20221;-66
2024/04/10 11:52:53;;;;;;;7.97;1.50;;;;;;;17.31;41.84;97721.63;2197962;26;20258;-66
2024/04/10 11:53:54;;;;;;;4.45;1.70;;;;;;;17.81;42.38;97729.44;2200013;26;20259;-65
2024/04/10 11:54:58;;;;;;;7.65;1.60;;;;;;;18.38;41.98;97726.19;2197380;26;20347;-66
2024/04/10 11:55:59;;;;;;;6.32;1.52;;;;;;;18.53;41.08;97729.72;2198753;26;20298;-66
2024/04/10 11:57:05;;;;;;;7.68;1.80;;;;;;;19.29;40.41;97725.97;2201033;26;20241;-66
2024/04/10 11:58:06;;;;;;;11.00;1.77;;;;;;;19.30;40.17;97724.16;2199318;26;20718;-66
2024/04/10 11:59:11;;;;;;;8.00;1.73;;;;;;;19.49;40.02;97729.16;2199375;26;20242;-66